SWA31 KPBI-KMEM
Flight info
| Callsign | SWA31 |
|---|---|
| Flight time | N/A |
| Altitude | 34000 |
| Route | TBIRD7 SMELZ Q116 GOOGY WASER VANZE3 |
| Aircraft | B737/M-SDE2E3FGHIRWXY/LB1 |
Departure
| Time | 2026-04-16 14:45 |
|---|---|
| Airport | Palm Beach International Airport (KPBI) |
Arrival
| Time | N/A |
|---|---|
| Airport | Memphis International Airport (KMEM) |
| Time | Latitude | Longitude | Altitude | Speed | Heading |
|---|---|---|---|---|---|
| 2026-04-16 14:28 | 26.68543 | -80.08866 | 21 ft | 0 kts | 312° |
| 2026-04-16 14:35 | 26.68534 | -80.08854 | 21 ft | 4 kts | 305° |
| 2026-04-16 14:35 | 26.68521 | -80.08828 | 22 ft | 4 kts | 284° |
| 2026-04-16 14:36 | 26.68519 | -80.08799 | 22 ft | 4 kts | 255° |
| 2026-04-16 14:36 | 26.68530 | -80.08775 | 21 ft | 4 kts | 210° |
| 2026-04-16 14:36 | 26.68541 | -80.08770 | 23 ft | 0 kts | 182° |
| 2026-04-16 14:39 | 26.68519 | -80.08771 | 23 ft | 5 kts | 182° |
| 2026-04-16 14:40 | 26.68483 | -80.08772 | 21 ft | 6 kts | 182° |
| 2026-04-16 14:40 | 26.68440 | -80.08808 | 21 ft | 12 kts | 257° |
| 2026-04-16 14:40 | 26.68443 | -80.08920 | 21 ft | 15 kts | 272° |
| 2026-04-16 14:40 | 26.68448 | -80.09036 | 21 ft | 15 kts | 272° |
| 2026-04-16 14:41 | 26.68390 | -80.09103 | 21 ft | 14 kts | 186° |
| 2026-04-16 14:41 | 26.68360 | -80.09187 | 21 ft | 13 kts | 273° |
| 2026-04-16 14:41 | 26.68365 | -80.09287 | 21 ft | 13 kts | 272° |
| 2026-04-16 14:41 | 26.68370 | -80.09420 | 21 ft | 22 kts | 272° |
| 2026-04-16 14:42 | 26.68380 | -80.09622 | 21 ft | 28 kts | 272° |
| 2026-04-16 14:42 | 26.68387 | -80.09832 | 21 ft | 26 kts | 272° |
| 2026-04-16 14:42 | 26.68397 | -80.10028 | 21 ft | 24 kts | 272° |
| 2026-04-16 14:42 | 26.68404 | -80.10211 | 20 ft | 23 kts | 272° |
| 2026-04-16 14:43 | 26.68412 | -80.10386 | 20 ft | 22 kts | 272° |
| 2026-04-16 14:43 | 26.68419 | -80.10556 | 20 ft | 22 kts | 272° |
| 2026-04-16 14:43 | 26.68425 | -80.10702 | 20 ft | 13 kts | 267° |
| 2026-04-16 14:43 | 26.68373 | -80.10743 | 20 ft | 10 kts | 182° |
| 2026-04-16 14:44 | 26.68318 | -80.10708 | 22 ft | 10 kts | 112° |
| 2026-04-16 14:44 | 26.68313 | -80.10635 | 20 ft | 9 kts | 89° |
| 2026-04-16 14:44 | 26.68302 | -80.10429 | 20 ft | 56 kts | 93° |
| 2026-04-16 14:44 | 26.68274 | -80.09757 | 21 ft | 114 kts | 92° |
| 2026-04-16 14:45 | 26.68239 | -80.08704 | 73 ft | 152 kts | 90° |
| 2026-04-16 14:45 | 26.68204 | -80.07492 | 571 ft | 156 kts | 91° |
| 2026-04-16 14:45 | 26.68167 | -80.06280 | 1062 ft | 163 kts | 93° |
| 2026-04-16 14:45 | 26.68285 | -80.04986 | 1585 ft | 171 kts | 67° |
| 2026-04-16 14:46 | 26.68871 | -80.03742 | 1965 ft | 194 kts | 64° |
| 2026-04-16 14:46 | 26.69534 | -80.02326 | 2242 ft | 216 kts | 65° |
| 2026-04-16 14:46 | 26.70265 | -80.00763 | 2500 ft | 240 kts | 64° |
| 2026-04-16 14:46 | 26.71119 | -79.99094 | 3026 ft | 255 kts | 52° |
| 2026-04-16 14:47 | 26.72487 | -79.97820 | 3807 ft | 260 kts | 35° |
| 2026-04-16 14:47 | 26.74177 | -79.97040 | 4536 ft | 270 kts | 13° |
| 2026-04-16 14:47 | 26.76038 | -79.96742 | 5392 ft | 271 kts | 5° |
| 2026-04-16 14:47 | 26.77911 | -79.97093 | 6120 ft | 280 kts | 336° |
| 2026-04-16 14:48 | 26.79450 | -79.98406 | 6843 ft | 289 kts | 309° |
| 2026-04-16 14:48 | 26.80385 | -80.00403 | 7620 ft | 292 kts | 291° |
| 2026-04-16 14:48 | 26.81055 | -80.02560 | 8427 ft | 295 kts | 290° |
| 2026-04-16 14:48 | 26.81700 | -80.04741 | 9363 ft | 294 kts | 290° |
| 2026-04-16 14:49 | 26.82345 | -80.06905 | 10317 ft | 294 kts | 290° |
| 2026-04-16 14:49 | 26.83019 | -80.09140 | 10708 ft | 315 kts | 290° |
| 2026-04-16 14:49 | 26.83757 | -80.11561 | 10889 ft | 341 kts | 289° |
| 2026-04-16 14:49 | 26.84551 | -80.14155 | 11119 ft | 362 kts | 290° |
| 2026-04-16 14:50 | 26.85367 | -80.16813 | 11658 ft | 369 kts | 290° |
| 2026-04-16 14:50 | 26.86206 | -80.19542 | 12385 ft | 372 kts | 289° |
| 2026-04-16 14:50 | 26.87053 | -80.22294 | 13110 ft | 376 kts | 289° |
| 2026-04-16 14:50 | 26.87910 | -80.25078 | 13800 ft | 380 kts | 289° |
| 2026-04-16 14:51 | 26.88775 | -80.27891 | 14429 ft | 384 kts | 289° |
| 2026-04-16 14:51 | 26.89649 | -80.30731 | 15053 ft | 388 kts | 289° |
| 2026-04-16 14:51 | 26.90571 | -80.33583 | 15660 ft | 391 kts | 295° |
| 2026-04-16 14:51 | 26.91722 | -80.35590 | 16098 ft | 394 kts | 313° |